Latest Weather Observations for Miles

IDQ60801

Issued at 11:32 am EST Wednesday 17 January 2018 (issued every 30 minutes, with the page automatically refreshed every 10 minutes)

About weather observations | Map of weather stations | Latest weather observations for QLD | Other Formats
Station Details ID: 042112 Name: MILES CONSTANCE STREET Lat: -26.66 Lon: 150.18 Height: 304.8 m
Data from the previous 72 hours. | See also: Recent months at Miles
Date/Time
EST
Temp
°C
App
Temp
°C
Dew
Point
°C
Rel
Hum
%
Delta-T
°C
Wind Press
QNH
hPa
Press
MSL
hPa
Rain since
9am
mm
Dir  Spd
km/h
Gust
km/h
Spd
kts
Gust
kts
17/11:30am 29.8 28.6 11.5 32 10.7 ENE 9 15 5 8 1016.8 - 0.0
17/11:00am 29.2 28.1 11.8 34 10.2 NE 9 15 5 8 1017.4 - 0.0
17/10:30am 27.9 27.0 12.5 38 9.1 NNE 9 17 5 9 1017.8 - 0.0
17/10:00am 26.4 25.3 13.0 43 7.9 NE 11 19 6 10 1018.1 - 0.0
17/09:30am 26.0 24.8 12.7 43 7.8 NNE 11 20 6 11 1018.3 - 0.0
17/09:00am 25.0 23.6 13.3 48 6.9 NNE 13 20 7 11 1018.2 1016.4 0.0
17/08:30am 23.8 22.0 13.4 52 6.1 NNE 15 22 8 12 1018.3 - 0.0
17/08:00am 22.6 20.8 13.4 56 5.4 NNE 15 24 8 13 1018.4 - 0.0
17/07:30am 21.4 19.6 13.3 60 4.7 NNE 15 28 8 15 1018.3 - 0.0
17/07:00am 21.0 19.9 13.0 60 4.6 NE 11 15 6 8 1018.1 - 0.0
17/06:30am 19.5 18.6 12.6 64 3.9 NNE 9 19 5 10 1017.9 - 0.0
17/06:00am 18.9 18.4 12.7 67 3.5 ENE 7 11 4 6 1017.5 1015.6 0.0
17/05:30am 18.7 18.4 12.7 68 3.4 NE 6 9 3 5 1017.0 - 0.0
17/05:00am 18.6 18.3 12.6 68 3.4 NE 6 11 3 6 1016.4 - 0.0
17/04:30am 19.0 18.5 12.5 66 3.7 NNE 7 13 4 7 1015.8 - 0.0
17/04:00am 19.5 18.2 12.5 64 4.0 NNE 11 17 6 9 1015.6 - 0.0
17/03:30am 19.9 18.5 12.1 60 4.4 NNE 11 19 6 10 1015.5 - 0.0
17/03:00am 20.3 18.5 12.2 59 4.6 NNE 13 22 7 12 1015.6 1013.8 0.0
17/02:30am 20.8 17.9 12.2 58 4.9 NNE 19 26 10 14 1015.6 - 0.0
17/02:00am 21.4 19.1 13.1 59 4.8 NNE 17 26 9 14 1015.6 - 0.0
17/01:30am 21.8 20.4 13.4 59 4.9 NNE 13 19 7 10 1015.3 - 0.0
17/01:00am 22.4 20.7 13.7 58 5.1 NNE 15 24 8 13 1014.9 - 0.0
17/12:30am 23.0 20.5 13.5 55 5.6 NNE 19 30 10 16 1014.8 - 0.0
17/12:00am 23.4 21.2 12.1 49 6.5 N 15 24 8 13 1014.9 1013.1 0.0
 
Date/Time
EST
Temp
°C
App
Temp
°C
Dew
Point
°C
Rel
Hum
%
Delta-T
°C
Wind Press
QNH
hPa
Press
MSL
hPa
Rain since
9am
mm
Dir  Spd
km/h
Gust
km/h
Spd
kts
Gust
kts
16/11:30pm 23.8 21.2 7.7 35 8.6 NNE 11 19 6 10 1014.9 - 0.0
16/11:00pm 24.0 21.1 6.4 32 9.2 N 11 24 6 13 1014.8 - 0.0
16/10:30pm 21.5 21.7 10.5 49 6.1 CALM 0 0 0 0 1014.5 - 0.0
16/10:00pm 23.1 23.3 10.6 45 7.0 CALM 0 0 0 0 1014.4 - 0.0
16/09:30pm 23.7 23.8 10.3 42 7.5 CALM 0 6 0 3 1014.2 - 0.0
16/09:00pm 25.1 25.0 9.6 37 8.6 CALM 0 0 0 0 1014.0 1012.1 0.0
16/08:30pm 24.8 25.0 10.6 40 8.0 CALM 0 0 0 0 1013.7 - 0.0
16/08:00pm 28.2 26.3 7.7 27 11.2 E 7 11 4 6 1013.6 - 0.0
16/07:30pm 27.8 28.0 10.7 34 9.8 CALM 0 0 0 0 1013.2 - 0.0
16/07:00pm 29.8 28.7 10.1 29 11.3 ENE 6 9 3 5 1012.9 - 0.0
16/06:30pm 31.3 29.5 7.1 22 13.3 ENE 6 11 3 6 1012.7 - 0.0
16/06:00pm 32.5 30.8 8.5 22 13.6 WNW 7 11 4 6 1012.4 1010.6 0.0
16/05:30pm 32.3 30.6 7.5 21 13.8 E 6 17 3 9 1012.1 - 0.0
16/05:00pm 32.8 29.8 6.0 18 14.6 S 11 17 6 9 1011.8 - 0.0
16/04:30pm 32.8 29.8 6.0 18 14.6 ESE 11 22 6 12 1011.7 - 0.0
16/04:00pm 32.5 30.3 6.4 19 14.3 NNE 7 17 4 9 1011.8 - 0.0
16/03:30pm 32.6 30.3 5.6 18 14.6 NNW 7 13 4 7 1012.0 - 0.0
16/03:00pm 31.7 28.7 6.1 20 13.9 S 11 17 6 9 1012.5 1010.7 0.0
16/02:30pm 31.2 28.1 5.4 19 13.8 SSE 11 22 6 12 1012.9 - 0.0
16/02:00pm 31.1 27.2 5.2 19 13.8 SE 15 24 8 13 1013.4 - 0.0
16/01:30pm 30.8 29.1 7.4 23 12.9 ESE 6 19 3 10 1013.7 - 0.0
16/01:00pm 30.3 27.2 7.4 23 12.6 SE 13 20 7 11 1014.1 - 0.0
16/12:30pm 29.8 26.1 7.9 25 12.1 SE 17 26 9 14 1014.5 - 0.0
16/12:00pm 28.8 26.9 9.0 29 11.1 S 9 19 5 10 1014.8 1012.9 0.0
16/11:30am 29.0 27.0 8.5 27 11.4 S 9 22 5 12 1015.1 - 0.0
16/11:00am 29.1 26.9 9.2 29 11.2 ESE 11 20 6 11 1015.3 - 0.0
16/10:30am 28.0 27.0 11.0 34 9.8 NNE 7 13 4 7 1015.5 - 0.0
16/10:00am 27.2 25.6 11.5 37 9.1 NE 11 20 6 11 1015.8 - 0.0
16/09:30am 26.0 25.1 12.5 43 7.9 NNE 9 17 5 9 1015.8 - 0.0
16/09:00am 25.8 25.2 13.5 46 7.3 NE 9 19 5 10 1015.9 1014.1 0.0
16/08:30am 24.4 23.1 13.6 51 6.4 NE 13 20 7 11 1016.2 - 0.0
16/08:00am 23.0 21.3 13.7 55 5.5 NNE 15 22 8 12 1016.2 - 0.0
16/07:30am 22.5 22.0 13.8 58 5.1 NNE 9 22 5 12 1016.0 - 0.0
16/07:00am 20.5 20.0 13.8 65 3.9 NNE 9 15 5 8 1015.8 - 0.0
16/06:30am 19.5 19.3 13.6 68 3.4 NE 7 13 4 7 1015.6 - 0.0
16/06:00am 17.9 19.0 13.5 75 2.5 CALM 0 7 0 4 1015.0 1013.2 0.0
16/05:30am 16.9 18.0 13.4 80 2.0 CALM 0 0 0 0 1014.5 - 0.0
16/05:00am 17.2 18.2 13.3 78 2.2 CALM 0 0 0 0 1014.0 - 0.0
16/04:30am 18.3 18.6 13.4 73 2.8 NE 4 7 2 4 1013.5 - 0.0
16/04:00am 18.8 18.4 13.0 69 3.3 NNE 7 11 4 6 1013.2 - 0.0
16/03:30am 19.2 18.5 13.1 68 3.5 NE 9 13 5 7 1013.0 - 0.0
16/03:00am 19.6 18.8 13.0 65 3.8 NNE 9 13 5 7 1012.8 1011.0 0.0
16/02:30am 20.2 18.6 12.9 63 4.2 NE 13 20 7 11 1012.7 - 0.0
16/02:00am 20.6 18.3 13.0 61 4.4 NE 17 28 9 15 1012.6 - 0.0
16/01:30am 21.0 19.5 13.2 61 4.5 NE 13 19 7 10 1012.6 - 0.0
16/01:00am 21.2 20.0 12.9 59 4.8 NE 11 20 6 11 1012.7 - 0.0
16/12:30am 21.8 20.0 10.9 50 6.1 NNE 11 15 6 8 1012.8 - 0.0
16/12:00am 22.3 19.6 7.5 38 7.8 NE 11 17 6 9 1013.0 1011.2 0.0
 
Date/Time
EST
Temp
°C
App
Temp
°C
Dew
Point
°C
Rel
Hum
%
Delta-T
°C
Wind Press
QNH
hPa
Press
MSL
hPa
Rain since
9am
mm
Dir  Spd
km/h
Gust
km/h
Spd
kts
Gust
kts
15/11:30pm 19.0 18.2 6.3 43 6.4 CALM 0 0 0 0 1012.3 - 0.0
15/11:00pm 20.3 19.3 5.8 38 7.3 CALM 0 0 0 0 1012.2 - 0.0
15/10:30pm 20.8 20.2 10.3 51 5.8 SSW 4 6 2 3 1012.3 - 0.0
15/10:00pm 22.7 21.8 9.3 42 7.3 SSW 4 6 2 3 1012.1 - 0.0
15/09:30pm 25.4 23.0 2.0 21 11.4 S 4 7 2 4 1012.0 - 0.0
15/09:00pm 26.4 23.1 -0.1 17 12.5 S 7 13 4 7 1011.5 1009.6 0.0
15/08:30pm 27.2 24.0 0.5 17 12.8 S 7 13 4 7 1011.1 - 0.0
15/08:00pm 28.1 24.7 -0.6 15 13.6 S 7 11 4 6 1010.8 - 0.0
15/07:30pm 29.2 24.9 -1.4 13 14.4 S 11 15 6 8 1010.5 - 0.0
15/07:00pm 30.1 25.7 -2.7 12 15.2 S 11 19 6 10 1010.1 - 0.0
15/06:30pm 31.4 26.1 -3.4 10 16.1 S 15 22 8 12 1009.8 - 0.0
15/06:00pm 32.1 26.8 -3.9 9 16.6 S 15 33 8 18 1009.5 1007.7 0.0
15/05:30pm 32.7 26.5 -4.7 9 17.1 S 19 26 10 14 1009.2 - 0.0
15/05:00pm 32.9 27.2 -4.1 9 17.1 S 17 30 9 16 1009.0 - 0.0
15/04:30pm 32.3 26.9 -1.7 11 16.3 S 17 28 9 15 1008.9 - 0.0
15/04:00pm 32.9 27.0 -2.4 10 16.8 S 19 28 10 15 1009.0 - 0.0
15/03:30pm 32.3 25.6 -3.8 9 16.7 SW 22 28 12 15 1009.1 - 0.0
15/03:00pm 32.0 26.1 -2.1 11 16.2 SSE 19 28 10 15 1009.5 1007.7 0.0
15/02:30pm 31.4 26.7 -1.9 11 15.8 S 13 32 7 17 1009.9 - 0.0
15/02:00pm 30.7 25.3 -1.5 12 15.3 SSE 17 32 9 17 1010.3 - 0.0
15/01:30pm 30.6 25.3 -0.9 13 15.1 S 17 28 9 15 1010.8 - 0.0
15/01:00pm 29.6 24.5 0.5 15 14.2 SSE 17 26 9 14 1011.2 - 0.0
15/12:30pm 29.4 23.6 -0.4 14 14.3 S 20 35 11 19 1011.6 - 0.0
15/12:00pm 29.2 23.9 -0.5 14 14.2 SW 17 28 9 15 1012.0 1010.2 0.0
15/11:30am 27.5 22.9 1.6 18 12.7 SE 15 28 8 15 1012.5 - 0.0
15/11:00am 27.3 21.9 1.5 18 12.6 SSE 19 32 10 17 1012.9 - 0.0
15/10:30am 26.8 23.0 3.7 22 11.7 SE 13 24 7 13 1013.3 - 0.0
15/10:00am 25.9 22.2 4.3 25 11.0 SSE 13 28 7 15 1013.5 - 0.0
15/09:30am 25.0 22.1 6.6 30 9.7 SE 11 35 6 19 1013.6 - 0.0
15/09:00am 24.1 20.6 7.1 33 9.0 SE 15 24 8 13 1013.5 1011.7 0.0
15/08:30am 23.9 20.8 7.3 34 8.8 ESE 13 20 7 11 1013.3 - 0.0
15/08:00am 23.4 20.4 7.9 37 8.3 E 13 24 7 13 1013.1 - 0.0
15/07:30am 22.6 20.6 10.1 45 6.9 E 11 17 6 9 1012.9 - 0.0
15/07:00am 21.5 19.9 10.3 49 6.2 E 9 13 5 7 1012.8 - 0.0
15/06:30am 20.2 18.7 8.5 47 6.2 ESE 6 9 3 5 1012.3 - 0.0
15/06:00am 18.0 15.8 6.2 46 5.9 SE 7 11 4 6 1011.9 1010.1 0.0
15/05:30am 17.0 14.7 5.9 48 5.5 ESE 7 11 4 6 1011.4 - 0.0
15/05:00am 17.2 14.7 4.8 44 6.0 SSE 7 11 4 6 1011.0 - 0.0
15/04:30am 16.9 15.0 2.9 39 6.5 S 2 7 1 4 1010.5 - 0.0
15/04:00am 17.6 14.6 0.9 32 7.5 S 6 11 3 6 1009.9 - 0.0
15/03:30am 17.8 14.9 1.3 33 7.5 SSW 6 7 3 4 1009.7 - 0.0
15/03:00am 18.9 15.5 -0.6 27 8.6 S 7 9 4 5 1009.5 1007.7 0.0
15/02:30am 19.4 16.0 -0.4 26 8.8 S 7 11 4 6 1009.5 - 0.0
15/02:00am 20.1 16.2 -1.7 23 9.5 SSW 9 13 5 7 1009.3 - 0.0
15/01:30am 20.9 16.4 -2.9 20 10.2 SSW 11 17 6 9 1009.3 - 0.0
15/01:00am 21.7 16.8 -3.8 18 10.8 SSW 13 20 7 11 1009.4 - 0.0
15/12:30am 21.7 16.8 -3.8 18 10.8 SSW 13 20 7 11 1009.5 - 0.0
15/12:00am 22.2 17.6 -4.0 17 11.1 SSW 11 17 6 9 1009.7 1007.9 0.0
 
Date/Time
EST
Temp
°C
App
Temp
°C
Dew
Point
°C
Rel
Hum
%
Delta-T
°C
Wind Press
QNH
hPa
Press
MSL
hPa
Rain since
9am
mm
Dir  Spd
km/h
Gust
km/h
Spd
kts
Gust
kts
14/11:30pm 22.8 18.1 -4.9 15 11.6 SSW 11 19 6 10 1010.0 - 0.0
14/11:00pm 22.8 18.2 -4.4 16 11.5 SSW 11 19 6 10 1009.9 - 0.0
14/10:30pm 22.9 18.8 -3.2 17 11.3 SSW 9 11 5 6 1009.8 - 0.0
14/10:00pm 24.2 20.0 -3.6 15 12.1 S 9 15 5 8 1009.7 - 0.0
14/09:30pm 24.9 19.5 -4.8 13 12.7 S 15 22 8 12 1009.5 - 0.0
14/09:00pm 25.6 19.8 -4.8 13 13.1 S 17 26 9 14 1009.2 1007.4 0.0
14/08:30pm 26.2 20.3 -5.8 11 13.6 S 17 32 9 17 1008.7 - 0.0
14/08:00pm 27.0 20.5 -6.1 11 14.1 S 20 32 11 17 1008.3 - 0.0
14/07:30pm 28.2 22.5 -3.5 12 14.2 S 17 33 9 18 1007.7 - 0.0
14/07:00pm 29.0 23.8 0.4 15 13.9 S 17 28 9 15 1007.1 - 0.0
14/06:30pm 30.0 24.7 1.9 16 14.1 S 19 32 10 17 1006.5 - 0.0
14/06:00pm 31.2 25.9 2.8 16 14.6 SSW 20 33 11 18 1006.0 1004.2 0.0
14/05:30pm 32.1 27.0 4.0 17 14.8 SSW 20 35 11 19 1005.5 - 0.0
14/05:00pm 32.7 27.8 4.3 16 15.0 S 19 28 10 15 1005.1 - 0.0
14/04:30pm 33.2 27.5 5.0 17 15.1 SSW 24 41 13 22 1004.9 - 0.0
14/04:00pm 33.1 27.9 5.4 17 15.0 SSW 22 35 12 19 1004.9 - 0.0
14/03:30pm 33.4 28.6 5.4 17 15.1 SW 20 33 11 18 1005.0 - 0.0
14/03:00pm 33.3 28.0 5.2 17 15.2 SW 22 43 12 23 1005.1 1003.2 0.0
14/02:30pm 33.9 29.3 5.8 17 15.3 SW 19 35 10 19 1005.1 - 0.0
14/02:00pm 34.0 29.9 6.0 17 15.3 WSW 17 32 9 17 1005.3 - 0.0
14/01:30pm 33.8 29.1 6.2 18 15.2 WSW 20 39 11 21 1005.5 - 0.0
14/01:00pm 33.6 29.1 7.1 19 14.7 WSW 20 41 11 22 1005.8 - 0.0
14/12:30pm 33.6 29.1 6.1 18 15.1 SW 19 35 10 19 1006.2 - 0.0
14/12:00pm 33.9 29.5 6.4 18 15.2 SSW 19 35 10 19 1006.5 1004.7 0.0

Other Formats:

Comma delimited format used in spreadsheet applications
http://www.bom.gov.au/fwo/IDQ60801/IDQ60801.95529.axf

JavaScript Object Notation format (JSON) in row-major order
http://www.bom.gov.au/fwo/IDQ60801/IDQ60801.95529.json